East Hampstead, New Hampshire
Current Conditions -  °F | °C
As of 11:54 AM on Thursday 27 Nov 2014 (Local Time) from KLWM Reporting Station
Overcast Overcast  
Wind Chill: 27°   Ceiling: 5000
Heat Index: 34°   Visibility: 10mi
Dew Point: 30°   Wind: 8mph
Humidity: 85%   Direction: 300°WNW
Pressure: 29.96"   Gusts: NA
Location:  42.89°N, 71.14°W
Report Text: KLWM 271654Z 30007KT 10SM FEW013 OVC050 01/M01 A2996 RMK AO2 SLP147 T00111011
Loading
Personal Weather Stations






























Interactive Weather Map New forecast layout! Learn more

10-Day Weather Forecast

Advertisements
Track Severe Weather on mobile